sensor_id;sensor_type;location;lat;lon;timestamp;P1;durP1;ratioP1;P2;durP2;ratioP2
48849;SDS011;63210;53.370;6.770;2023-02-28T00:00:44;9.07;;;2.33;;
48849;SDS011;63210;53.370;6.770;2023-02-28T00:03:12;5.50;;;2.20;;
48849;SDS011;63210;53.370;6.770;2023-02-28T00:05:42;5.88;;;1.88;;
48849;SDS011;63210;53.370;6.770;2023-02-28T00:08:10;4.22;;;2.10;;
48849;SDS011;63210;53.370;6.770;2023-02-28T00:10:35;4.47;;;1.63;;
48849;SDS011;63210;53.370;6.770;2023-02-28T00:13:04;6.13;;;1.95;;
48849;SDS011;63210;53.370;6.770;2023-02-28T00:15:41;4.85;;;1.95;;
48849;SDS011;63210;53.370;6.770;2023-02-28T00:21:02;8.15;;;1.60;;
48849;SDS011;63210;53.370;6.770;2023-02-28T00:23:34;7.70;;;1.70;;
48849;SDS011;63210;53.370;6.770;2023-02-28T00:26:11;5.88;;;1.50;;
48849;SDS011;63210;53.370;6.770;2023-02-28T00:28:37;11.35;;;1.77;;
48849;SDS011;63210;53.370;6.770;2023-02-28T00:31:02;7.40;;;1.80;;
48849;SDS011;63210;53.370;6.770;2023-02-28T00:33:28;6.80;;;1.83;;
48849;SDS011;63210;53.370;6.770;2023-02-28T00:36:00;5.22;;;1.88;;
48849;SDS011;63210;53.370;6.770;2023-02-28T00:38:28;9.57;;;2.15;;
48849;SDS011;63210;53.370;6.770;2023-02-28T00:40:54;4.13;;;1.60;;
48849;SDS011;63210;53.370;6.770;2023-02-28T00:43:25;5.38;;;1.55;;
48849;SDS011;63210;53.370;6.770;2023-02-28T00:45:51;5.10;;;1.50;;
48849;SDS011;63210;53.370;6.770;2023-02-28T00:48:16;4.13;;;1.70;;
48849;SDS011;63210;53.370;6.770;2023-02-28T00:53:22;7.22;;;1.80;;
48849;SDS011;63210;53.370;6.770;2023-02-28T00:55:50;6.28;;;1.77;;
48849;SDS011;63210;53.370;6.770;2023-02-28T00:58:18;7.22;;;1.75;;
48849;SDS011;63210;53.370;6.770;2023-02-28T01:00:44;3.22;;;1.70;;
48849;SDS011;63210;53.370;6.770;2023-02-28T01:03:14;8.98;;;1.52;;
48849;SDS011;63210;53.370;6.770;2023-02-28T01:05:39;6.93;;;1.85;;
48849;SDS011;63210;53.370;6.770;2023-02-28T01:08:08;9.35;;;2.10;;
48849;SDS011;63210;53.370;6.770;2023-02-28T01:10:33;9.05;;;1.95;;
48849;SDS011;63210;53.370;6.770;2023-02-28T01:13:01;5.80;;;1.65;;
48849;SDS011;63210;53.370;6.770;2023-02-28T01:15:27;5.03;;;1.73;;
48849;SDS011;63210;53.370;6.770;2023-02-28T01:17:52;7.68;;;2.08;;
48849;SDS011;63210;53.370;6.770;2023-02-28T01:20:20;10.13;;;2.40;;
48849;SDS011;63210;53.370;6.770;2023-02-28T01:22:45;9.93;;;2.10;;
48849;SDS011;63210;53.370;6.770;2023-02-28T01:25:14;3.65;;;1.60;;
48849;SDS011;63210;53.370;6.770;2023-02-28T01:27:39;4.97;;;1.90;;
48849;SDS011;63210;53.370;6.770;2023-02-28T01:30:15;7.55;;;2.25;;
48849;SDS011;63210;53.370;6.770;2023-02-28T01:32:41;5.72;;;1.85;;
48849;SDS011;63210;53.370;6.770;2023-02-28T01:35:07;7.22;;;2.00;;
48849;SDS011;63210;53.370;6.770;2023-02-28T01:37:32;7.32;;;2.05;;
48849;SDS011;63210;53.370;6.770;2023-02-28T01:40:00;5.28;;;1.80;;
48849;SDS011;63210;53.370;6.770;2023-02-28T01:42:33;4.72;;;1.80;;
48849;SDS011;63210;53.370;6.770;2023-02-28T01:45:18;4.70;;;2.08;;
48849;SDS011;63210;53.370;6.770;2023-02-28T01:47:44;4.90;;;2.13;;
48849;SDS011;63210;53.370;6.770;2023-02-28T01:50:20;6.00;;;1.88;;
48849;SDS011;63210;53.370;6.770;2023-02-28T01:52:46;6.45;;;2.40;;
48849;SDS011;63210;53.370;6.770;2023-02-28T01:55:15;7.80;;;2.63;;
48849;SDS011;63210;53.370;6.770;2023-02-28T01:57:49;4.32;;;1.80;;
48849;SDS011;63210;53.370;6.770;2023-02-28T02:00:16;5.70;;;1.92;;
48849;SDS011;63210;53.370;6.770;2023-02-28T02:02:43;7.40;;;2.08;;
48849;SDS011;63210;53.370;6.770;2023-02-28T02:05:10;5.35;;;1.80;;
48849;SDS011;63210;53.370;6.770;2023-02-28T02:07:38;9.73;;;2.35;;
48849;SDS011;63210;53.370;6.770;2023-02-28T02:10:06;5.65;;;2.15;;
48849;SDS011;63210;53.370;6.770;2023-02-28T02:17:49;6.70;;;2.20;;
48849;SDS011;63210;53.370;6.770;2023-02-28T02:25:52;3.45;;;1.90;;
48849;SDS011;63210;53.370;6.770;2023-02-28T02:42:00;4.90;;;1.48;;
48849;SDS011;63210;53.370;6.770;2023-02-28T02:44:33;6.55;;;1.63;;
48849;SDS011;63210;53.370;6.770;2023-02-28T02:47:06;3.15;;;1.23;;
48849;SDS011;63210;53.370;6.770;2023-02-28T02:52:07;2.97;;;1.77;;
48849;SDS011;63210;53.370;6.770;2023-02-28T02:54:37;7.57;;;2.00;;
48849;SDS011;63210;53.370;6.770;2023-02-28T02:57:07;14.45;;;2.13;;
48849;SDS011;63210;53.370;6.770;2023-02-28T02:59:35;7.05;;;2.20;;
48849;SDS011;63210;53.370;6.770;2023-02-28T03:02:02;4.95;;;1.80;;
48849;SDS011;63210;53.370;6.770;2023-02-28T03:04:48;6.07;;;2.00;;
48849;SDS011;63210;53.370;6.770;2023-02-28T03:07:16;6.60;;;1.90;;
48849;SDS011;63210;53.370;6.770;2023-02-28T03:09:51;5.75;;;2.15;;
48849;SDS011;63210;53.370;6.770;2023-02-28T03:12:18;6.25;;;1.98;;
48849;SDS011;63210;53.370;6.770;2023-02-28T03:15:03;12.63;;;2.22;;
48849;SDS011;63210;53.370;6.770;2023-02-28T03:28:11;10.30;;;1.92;;
48849;SDS011;63210;53.370;6.770;2023-02-28T03:33:16;18.27;;;3.85;;
48849;SDS011;63210;53.370;6.770;2023-02-28T03:35:45;17.27;;;4.53;;
48849;SDS011;63210;53.370;6.770;2023-02-28T03:38:14;12.52;;;4.95;;
48849;SDS011;63210;53.370;6.770;2023-02-28T03:40:42;13.10;;;4.97;;
48849;SDS011;63210;53.370;6.770;2023-02-28T03:43:10;14.15;;;7.28;;
48849;SDS011;63210;53.370;6.770;2023-02-28T03:45:37;13.57;;;7.70;;
48849;SDS011;63210;53.370;6.770;2023-02-28T03:48:16;19.38;;;10.70;;
48849;SDS011;63210;53.370;6.770;2023-02-28T03:50:44;23.95;;;11.30;;
48849;SDS011;63210;53.370;6.770;2023-02-28T03:53:19;22.42;;;12.18;;
48849;SDS011;63210;53.370;6.770;2023-02-28T03:55:47;27.33;;;13.75;;
48849;SDS011;63210;53.370;6.770;2023-02-28T04:01:05;19.77;;;11.55;;
48849;SDS011;63210;53.370;6.770;2023-02-28T04:03:32;22.45;;;12.63;;
48849;SDS011;63210;53.370;6.770;2023-02-28T04:05:58;26.05;;;12.70;;
48849;SDS011;63210;53.370;6.770;2023-02-28T04:08:23;20.33;;;10.95;;
48849;SDS011;63210;53.370;6.770;2023-02-28T04:10:56;22.52;;;10.88;;
48849;SDS011;63210;53.370;6.770;2023-02-28T04:13:24;18.58;;;11.15;;
48849;SDS011;63210;53.370;6.770;2023-02-28T04:15:50;25.15;;;13.52;;
48849;SDS011;63210;53.370;6.770;2023-02-28T04:18:16;18.63;;;11.27;;
48849;SDS011;63210;53.370;6.770;2023-02-28T04:20:41;19.50;;;11.25;;
48849;SDS011;63210;53.370;6.770;2023-02-28T04:23:16;27.83;;;13.55;;
48849;SDS011;63210;53.370;6.770;2023-02-28T04:25:41;22.23;;;12.75;;
48849;SDS011;63210;53.370;6.770;2023-02-28T04:28:06;27.77;;;12.57;;
48849;SDS011;63210;53.370;6.770;2023-02-28T04:30:32;25.52;;;13.23;;
48849;SDS011;63210;53.370;6.770;2023-02-28T04:33:03;22.10;;;12.48;;
48849;SDS011;63210;53.370;6.770;2023-02-28T04:35:28;24.10;;;12.65;;
48849;SDS011;63210;53.370;6.770;2023-02-28T04:37:53;24.90;;;12.27;;
48849;SDS011;63210;53.370;6.770;2023-02-28T04:40:22;28.15;;;13.15;;
48849;SDS011;63210;53.370;6.770;2023-02-28T04:42:47;26.33;;;12.43;;
48849;SDS011;63210;53.370;6.770;2023-02-28T04:45:12;24.90;;;11.10;;
48849;SDS011;63210;53.370;6.770;2023-02-28T04:47:40;26.88;;;13.32;;
48849;SDS011;63210;53.370;6.770;2023-02-28T04:50:08;27.70;;;12.23;;
48849;SDS011;63210;53.370;6.770;2023-02-28T04:52:37;22.40;;;12.60;;
48849;SDS011;63210;53.370;6.770;2023-02-28T04:55:02;21.05;;;11.32;;
48849;SDS011;63210;53.370;6.770;2023-02-28T04:57:31;20.60;;;11.30;;
48849;SDS011;63210;53.370;6.770;2023-02-28T04:59:56;19.08;;;10.90;;
48849;SDS011;63210;53.370;6.770;2023-02-28T05:02:24;17.38;;;11.05;;
48849;SDS011;63210;53.370;6.770;2023-02-28T05:04:59;18.90;;;10.52;;
48849;SDS011;63210;53.370;6.770;2023-02-28T05:07:25;18.85;;;11.15;;
48849;SDS011;63210;53.370;6.770;2023-02-28T05:09:53;13.68;;;8.85;;
48849;SDS011;63210;53.370;6.770;2023-02-28T05:12:19;18.08;;;10.10;;
48849;SDS011;63210;53.370;6.770;2023-02-28T05:14:45;15.02;;;9.63;;
48849;SDS011;63210;53.370;6.770;2023-02-28T05:17:26;17.63;;;11.07;;
48849;SDS011;63210;53.370;6.770;2023-02-28T05:19:52;15.68;;;8.98;;
48849;SDS011;63210;53.370;6.770;2023-02-28T05:22:17;12.40;;;7.28;;
48849;SDS011;63210;53.370;6.770;2023-02-28T05:24:45;12.70;;;7.07;;
48849;SDS011;63210;53.370;6.770;2023-02-28T05:27:11;8.90;;;6.63;;
48849;SDS011;63210;53.370;6.770;2023-02-28T05:29:36;9.45;;;6.70;;
48849;SDS011;63210;53.370;6.770;2023-02-28T05:32:10;10.50;;;7.07;;
48849;SDS011;63210;53.370;6.770;2023-02-28T05:34:39;10.63;;;7.22;;
48849;SDS011;63210;53.370;6.770;2023-02-28T05:37:05;10.07;;;7.22;;
48849;SDS011;63210;53.370;6.770;2023-02-28T05:39:30;12.82;;;6.75;;
48849;SDS011;63210;53.370;6.770;2023-02-28T05:41:58;9.95;;;7.13;;
48849;SDS011;63210;53.370;6.770;2023-02-28T05:44:27;8.65;;;6.07;;
48849;SDS011;63210;53.370;6.770;2023-02-28T05:46:55;10.60;;;6.97;;
48849;SDS011;63210;53.370;6.770;2023-02-28T05:49:21;11.85;;;7.40;;
48849;SDS011;63210;53.370;6.770;2023-02-28T05:51:46;7.85;;;6.15;;
48849;SDS011;63210;53.370;6.770;2023-02-28T05:54:11;8.95;;;6.63;;
48849;SDS011;63210;53.370;6.770;2023-02-28T05:56:37;7.97;;;5.78;;
48849;SDS011;63210;53.370;6.770;2023-02-28T05:59:09;11.60;;;7.35;;
48849;SDS011;63210;53.370;6.770;2023-02-28T06:01:35;13.57;;;7.35;;
48849;SDS011;63210;53.370;6.770;2023-02-28T06:04:02;12.23;;;7.78;;
48849;SDS011;63210;53.370;6.770;2023-02-28T06:06:28;13.50;;;7.75;;
48849;SDS011;63210;53.370;6.770;2023-02-28T06:08:59;14.50;;;9.65;;
48849;SDS011;63210;53.370;6.770;2023-02-28T06:11:24;12.65;;;8.25;;
48849;SDS011;63210;53.370;6.770;2023-02-28T06:13:54;16.42;;;10.18;;
48849;SDS011;63210;53.370;6.770;2023-02-28T06:16:24;12.95;;;8.00;;
48849;SDS011;63210;53.370;6.770;2023-02-28T06:18:49;11.57;;;8.15;;
48849;SDS011;63210;53.370;6.770;2023-02-28T06:21:15;21.20;;;8.63;;
48849;SDS011;63210;53.370;6.770;2023-02-28T06:23:41;16.83;;;8.98;;
48849;SDS011;63210;53.370;6.770;2023-02-28T06:26:06;14.95;;;8.50;;
48849;SDS011;63210;53.370;6.770;2023-02-28T06:28:32;16.02;;;8.75;;
48849;SDS011;63210;53.370;6.770;2023-02-28T06:31:25;61.25;;;38.50;;
48849;SDS011;63210;53.370;6.770;2023-02-28T06:33:51;17.10;;;9.95;;
48849;SDS011;63210;53.370;6.770;2023-02-28T06:36:21;21.98;;;15.23;;
48849;SDS011;63210;53.370;6.770;2023-02-28T06:38:47;18.40;;;11.68;;
48849;SDS011;63210;53.370;6.770;2023-02-28T06:41:20;19.02;;;9.82;;
48849;SDS011;63210;53.370;6.770;2023-02-28T06:43:53;16.63;;;9.73;;
48849;SDS011;63210;53.370;6.770;2023-02-28T06:46:18;17.10;;;9.45;;
48849;SDS011;63210;53.370;6.770;2023-02-28T06:48:55;16.33;;;11.63;;
48849;SDS011;63210;53.370;6.770;2023-02-28T06:51:23;20.80;;;10.90;;
48849;SDS011;63210;53.370;6.770;2023-02-28T06:53:52;19.45;;;11.35;;
48849;SDS011;63210;53.370;6.770;2023-02-28T06:56:20;15.05;;;9.65;;
48849;SDS011;63210;53.370;6.770;2023-02-28T06:58:49;18.17;;;10.80;;
48849;SDS011;63210;53.370;6.770;2023-02-28T07:01:15;18.63;;;10.60;;
48849;SDS011;63210;53.370;6.770;2023-02-28T07:03:43;20.10;;;11.40;;
48849;SDS011;63210;53.370;6.770;2023-02-28T07:06:09;17.15;;;11.30;;
48849;SDS011;63210;53.370;6.770;2023-02-28T07:08:37;22.90;;;11.95;;
48849;SDS011;63210;53.370;6.770;2023-02-28T07:11:05;20.17;;;11.77;;
48849;SDS011;63210;53.370;6.770;2023-02-28T07:13:30;24.13;;;16.17;;
48849;SDS011;63210;53.370;6.770;2023-02-28T07:16:12;28.30;;;19.67;;
48849;SDS011;63210;53.370;6.770;2023-02-28T07:18:45;22.83;;;13.80;;
48849;SDS011;63210;53.370;6.770;2023-02-28T07:21:13;22.30;;;12.13;;
48849;SDS011;63210;53.370;6.770;2023-02-28T07:23:42;20.38;;;12.40;;
48849;SDS011;63210;53.370;6.770;2023-02-28T07:26:12;20.73;;;11.40;;
48849;SDS011;63210;53.370;6.770;2023-02-28T07:28:40;15.85;;;10.45;;
48849;SDS011;63210;53.370;6.770;2023-02-28T07:31:06;17.10;;;11.45;;
48849;SDS011;63210;53.370;6.770;2023-02-28T07:33:34;21.50;;;12.48;;
48849;SDS011;63210;53.370;6.770;2023-02-28T07:36:01;23.20;;;13.35;;
48849;SDS011;63210;53.370;6.770;2023-02-28T07:38:26;20.13;;;11.63;;
48849;SDS011;63210;53.370;6.770;2023-02-28T07:40:52;18.80;;;11.63;;
48849;SDS011;63210;53.370;6.770;2023-02-28T07:43:20;19.73;;;11.68;;
48849;SDS011;63210;53.370;6.770;2023-02-28T07:45:48;22.20;;;11.88;;
48849;SDS011;63210;53.370;6.770;2023-02-28T07:48:15;17.00;;;10.73;;
48849;SDS011;63210;53.370;6.770;2023-02-28T07:50:40;19.55;;;11.57;;
48849;SDS011;63210;53.370;6.770;2023-02-28T07:53:06;18.83;;;11.23;;
48849;SDS011;63210;53.370;6.770;2023-02-28T07:55:31;16.42;;;10.90;;
48849;SDS011;63210;53.370;6.770;2023-02-28T07:57:57;20.55;;;11.70;;
48849;SDS011;63210;53.370;6.770;2023-02-28T08:00:23;16.98;;;10.98;;
48849;SDS011;63210;53.370;6.770;2023-02-28T08:02:49;16.45;;;9.73;;
48849;SDS011;63210;53.370;6.770;2023-02-28T08:05:22;14.45;;;8.95;;
48849;SDS011;63210;53.370;6.770;2023-02-28T08:07:48;17.63;;;10.20;;
48849;SDS011;63210;53.370;6.770;2023-02-28T08:10:20;15.73;;;10.45;;
48849;SDS011;63210;53.370;6.770;2023-02-28T08:12:50;15.25;;;9.90;;
48849;SDS011;63210;53.370;6.770;2023-02-28T08:15:15;15.68;;;9.80;;
48849;SDS011;63210;53.370;6.770;2023-02-28T08:17:44;19.27;;;9.30;;
48849;SDS011;63210;53.370;6.770;2023-02-28T08:20:11;17.95;;;9.23;;
48849;SDS011;63210;53.370;6.770;2023-02-28T08:22:40;15.02;;;8.95;;
48849;SDS011;63210;53.370;6.770;2023-02-28T08:25:06;17.48;;;10.10;;
48849;SDS011;63210;53.370;6.770;2023-02-28T08:27:32;14.20;;;9.18;;
48849;SDS011;63210;53.370;6.770;2023-02-28T08:29:57;13.93;;;9.00;;
48849;SDS011;63210;53.370;6.770;2023-02-28T08:32:26;15.63;;;9.18;;
48849;SDS011;63210;53.370;6.770;2023-02-28T08:34:57;15.60;;;10.25;;
48849;SDS011;63210;53.370;6.770;2023-02-28T08:37:29;14.00;;;9.45;;
48849;SDS011;63210;53.370;6.770;2023-02-28T08:39:54;15.90;;;10.13;;
48849;SDS011;63210;53.370;6.770;2023-02-28T08:42:19;14.30;;;9.10;;
48849;SDS011;63210;53.370;6.770;2023-02-28T08:44:48;15.10;;;10.30;;
48849;SDS011;63210;53.370;6.770;2023-02-28T08:47:16;16.98;;;10.43;;
48849;SDS011;63210;53.370;6.770;2023-02-28T08:49:52;18.80;;;10.77;;
48849;SDS011;63210;53.370;6.770;2023-02-28T08:52:21;14.05;;;10.38;;
48849;SDS011;63210;53.370;6.770;2023-02-28T08:54:46;13.32;;;10.00;;
48849;SDS011;63210;53.370;6.770;2023-02-28T08:57:12;14.95;;;10.50;;
48849;SDS011;63210;53.370;6.770;2023-02-28T08:59:37;19.40;;;11.30;;
48849;SDS011;63210;53.370;6.770;2023-02-28T09:02:05;18.52;;;12.30;;
48849;SDS011;63210;53.370;6.770;2023-02-28T09:04:31;16.05;;;11.20;;
48849;SDS011;63210;53.370;6.770;2023-02-28T09:06:59;15.65;;;9.70;;
48849;SDS011;63210;53.370;6.770;2023-02-28T09:09:24;14.32;;;10.05;;
48849;SDS011;63210;53.370;6.770;2023-02-28T09:11:49;16.30;;;9.18;;
48849;SDS011;63210;53.370;6.770;2023-02-28T09:14:15;17.50;;;11.40;;
48849;SDS011;63210;53.370;6.770;2023-02-28T09:16:42;15.35;;;9.10;;
48849;SDS011;63210;53.370;6.770;2023-02-28T09:19:10;17.20;;;9.70;;
48849;SDS011;63210;53.370;6.770;2023-02-28T09:21:35;14.98;;;10.18;;
48849;SDS011;63210;53.370;6.770;2023-02-28T09:24:02;16.70;;;11.05;;
48849;SDS011;63210;53.370;6.770;2023-02-28T09:26:32;17.33;;;10.30;;
48849;SDS011;63210;53.370;6.770;2023-02-28T09:28:59;15.57;;;10.25;;
48849;SDS011;63210;53.370;6.770;2023-02-28T09:31:27;14.73;;;10.57;;
48849;SDS011;63210;53.370;6.770;2023-02-28T09:33:56;17.20;;;9.40;;
48849;SDS011;63210;53.370;6.770;2023-02-28T09:36:22;15.68;;;10.73;;
48849;SDS011;63210;53.370;6.770;2023-02-28T09:38:48;15.23;;;10.70;;
48849;SDS011;63210;53.370;6.770;2023-02-28T09:41:20;15.02;;;9.60;;
48849;SDS011;63210;53.370;6.770;2023-02-28T09:43:52;13.35;;;9.38;;
48849;SDS011;63210;53.370;6.770;2023-02-28T09:49:03;12.73;;;8.25;;
48849;SDS011;63210;53.370;6.770;2023-02-28T09:51:34;14.80;;;10.93;;
48849;SDS011;63210;53.370;6.770;2023-02-28T09:54:04;15.75;;;9.57;;
48849;SDS011;63210;53.370;6.770;2023-02-28T09:59:02;13.40;;;8.30;;
48849;SDS011;63210;53.370;6.770;2023-02-28T10:07:03;19.00;;;10.10;;
48849;SDS011;63210;53.370;6.770;2023-02-28T10:09:34;13.02;;;8.38;;
48849;SDS011;63210;53.370;6.770;2023-02-28T10:12:06;15.55;;;9.95;;
48849;SDS011;63210;53.370;6.770;2023-02-28T10:14:34;14.75;;;8.95;;
48849;SDS011;63210;53.370;6.770;2023-02-28T10:17:06;15.40;;;9.38;;
48849;SDS011;63210;53.370;6.770;2023-02-28T10:19:41;13.43;;;8.73;;
48849;SDS011;63210;53.370;6.770;2023-02-28T10:22:11;11.63;;;8.57;;
48849;SDS011;63210;53.370;6.770;2023-02-28T10:24:39;12.77;;;8.18;;
48849;SDS011;63210;53.370;6.770;2023-02-28T10:27:18;14.27;;;8.27;;
48849;SDS011;63210;53.370;6.770;2023-02-28T10:29:47;14.70;;;9.20;;
48849;SDS011;63210;53.370;6.770;2023-02-28T10:32:16;13.13;;;8.18;;
48849;SDS011;63210;53.370;6.770;2023-02-28T10:34:50;9.73;;;6.70;;
48849;SDS011;63210;53.370;6.770;2023-02-28T10:37:18;10.40;;;7.25;;
48849;SDS011;63210;53.370;6.770;2023-02-28T10:39:45;10.45;;;7.78;;
48849;SDS011;63210;53.370;6.770;2023-02-28T10:44:45;13.90;;;7.90;;
48849;SDS011;63210;53.370;6.770;2023-02-28T10:47:21;10.38;;;7.50;;
48849;SDS011;63210;53.370;6.770;2023-02-28T10:49:50;11.10;;;7.22;;
48849;SDS011;63210;53.370;6.770;2023-02-28T10:52:39;12.40;;;7.60;;
48849;SDS011;63210;53.370;6.770;2023-02-28T10:55:22;14.75;;;8.43;;
48849;SDS011;63210;53.370;6.770;2023-02-28T10:58:03;12.60;;;8.13;;
48849;SDS011;63210;53.370;6.770;2023-02-28T11:00:37;12.48;;;7.20;;
48849;SDS011;63210;53.370;6.770;2023-02-28T11:03:04;16.73;;;7.53;;
48849;SDS011;63210;53.370;6.770;2023-02-28T11:05:47;16.42;;;7.82;;
48849;SDS011;63210;53.370;6.770;2023-02-28T11:08:16;11.27;;;7.78;;
48849;SDS011;63210;53.370;6.770;2023-02-28T11:10:46;12.40;;;7.68;;
48849;SDS011;63210;53.370;6.770;2023-02-28T11:13:19;13.25;;;8.23;;
48849;SDS011;63210;53.370;6.770;2023-02-28T11:15:55;10.48;;;7.88;;
48849;SDS011;63210;53.370;6.770;2023-02-28T11:21:09;10.93;;;6.97;;
48849;SDS011;63210;53.370;6.770;2023-02-28T11:23:46;7.07;;;6.18;;
48849;SDS011;63210;53.370;6.770;2023-02-28T11:26:39;14.80;;;8.90;;
48849;SDS011;63210;53.370;6.770;2023-02-28T11:29:23;10.30;;;7.28;;
48849;SDS011;63210;53.370;6.770;2023-02-28T11:34:42;11.38;;;8.25;;
48849;SDS011;63210;53.370;6.770;2023-02-28T11:37:18;12.15;;;7.32;;
48849;SDS011;63210;53.370;6.770;2023-02-28T11:39:44;11.68;;;8.23;;
48849;SDS011;63210;53.370;6.770;2023-02-28T11:45:07;13.30;;;8.20;;
48849;SDS011;63210;53.370;6.770;2023-02-28T11:52:56;10.18;;;6.20;;
48849;SDS011;63210;53.370;6.770;2023-02-28T11:55:38;6.53;;;5.53;;
48849;SDS011;63210;53.370;6.770;2023-02-28T12:03:24;10.02;;;6.30;;
48849;SDS011;63210;53.370;6.770;2023-02-28T12:06:02;9.05;;;6.55;;
48849;SDS011;63210;53.370;6.770;2023-02-28T12:16:32;11.30;;;6.68;;
48849;SDS011;63210;53.370;6.770;2023-02-28T12:19:13;9.80;;;7.05;;
48849;SDS011;63210;53.370;6.770;2023-02-28T12:22:01;11.88;;;6.85;;
48849;SDS011;63210;53.370;6.770;2023-02-28T12:27:12;10.68;;;6.93;;
48849;SDS011;63210;53.370;6.770;2023-02-28T12:40:11;12.25;;;6.82;;
48849;SDS011;63210;53.370;6.770;2023-02-28T12:42:42;9.82;;;7.20;;
48849;SDS011;63210;53.370;6.770;2023-02-28T12:45:22;8.85;;;7.15;;
48849;SDS011;63210;53.370;6.770;2023-02-28T12:47:52;11.38;;;7.68;;
48849;SDS011;63210;53.370;6.770;2023-02-28T12:50:19;13.95;;;9.30;;
48849;SDS011;63210;53.370;6.770;2023-02-28T12:55:53;9.60;;;7.13;;
48849;SDS011;63210;53.370;6.770;2023-02-28T12:58:27;10.57;;;7.78;;
48849;SDS011;63210;53.370;6.770;2023-02-28T13:07:13;10.05;;;7.53;;
48849;SDS011;63210;53.370;6.770;2023-02-28T13:09:30;8.13;;;6.15;;
48849;SDS011;63210;53.370;6.770;2023-02-28T13:11:59;10.57;;;6.93;;
48849;SDS011;63210;53.370;6.770;2023-02-28T13:14:28;11.02;;;6.68;;
48849;SDS011;63210;53.370;6.770;2023-02-28T13:19:25;15.40;;;8.93;;
48849;SDS011;63210;53.370;6.770;2023-02-28T13:21:52;10.13;;;6.30;;
48849;SDS011;63210;53.370;6.770;2023-02-28T13:24:44;11.65;;;7.53;;
48849;SDS011;63210;53.370;6.770;2023-02-28T13:27:25;11.20;;;6.20;;
48849;SDS011;63210;53.370;6.770;2023-02-28T13:29:56;12.23;;;7.07;;
48849;SDS011;63210;53.370;6.770;2023-02-28T13:39:53;9.43;;;6.72;;
48849;SDS011;63210;53.370;6.770;2023-02-28T13:42:23;12.10;;;7.80;;
48849;SDS011;63210;53.370;6.770;2023-02-28T13:47:42;11.13;;;7.70;;
48849;SDS011;63210;53.370;6.770;2023-02-28T13:50:21;10.98;;;7.13;;
48849;SDS011;63210;53.370;6.770;2023-02-28T13:58:40;9.95;;;5.72;;
48849;SDS011;63210;53.370;6.770;2023-02-28T14:06:29;11.68;;;6.22;;
48849;SDS011;63210;53.370;6.770;2023-02-28T14:09:05;9.30;;;5.68;;
48849;SDS011;63210;53.370;6.770;2023-02-28T14:11:40;8.60;;;5.70;;
48849;SDS011;63210;53.370;6.770;2023-02-28T14:19:26;7.50;;;5.27;;
48849;SDS011;63210;53.370;6.770;2023-02-28T14:30:03;7.65;;;6.05;;
48849;SDS011;63210;53.370;6.770;2023-02-28T14:37:41;10.32;;;5.82;;
48849;SDS011;63210;53.370;6.770;2023-02-28T14:46:11;9.20;;;4.70;;
48849;SDS011;63210;53.370;6.770;2023-02-28T14:48:38;9.30;;;6.28;;
48849;SDS011;63210;53.370;6.770;2023-02-28T14:51:03;10.65;;;6.18;;
48849;SDS011;63210;53.370;6.770;2023-02-28T14:53:38;7.38;;;5.93;;
48849;SDS011;63210;53.370;6.770;2023-02-28T14:56:03;10.25;;;5.50;;
48849;SDS011;63210;53.370;6.770;2023-02-28T14:58:30;9.00;;;5.57;;
48849;SDS011;63210;53.370;6.770;2023-02-28T15:01:05;9.75;;;5.55;;
48849;SDS011;63210;53.370;6.770;2023-02-28T15:03:34;8.90;;;6.10;;
48849;SDS011;63210;53.370;6.770;2023-02-28T15:06:11;11.98;;;7.13;;
48849;SDS011;63210;53.370;6.770;2023-02-28T15:09:06;12.98;;;8.13;;
48849;SDS011;63210;53.370;6.770;2023-02-28T15:11:32;12.40;;;8.20;;
48849;SDS011;63210;53.370;6.770;2023-02-28T15:13:58;13.10;;;8.00;;
48849;SDS011;63210;53.370;6.770;2023-02-28T15:16:32;9.82;;;7.07;;
48849;SDS011;63210;53.370;6.770;2023-02-28T15:21:45;11.73;;;7.43;;
48849;SDS011;63210;53.370;6.770;2023-02-28T15:26:45;13.38;;;7.55;;
48849;SDS011;63210;53.370;6.770;2023-02-28T15:29:14;11.40;;;7.90;;
48849;SDS011;63210;53.370;6.770;2023-02-28T15:34:12;9.00;;;6.20;;
48849;SDS011;63210;53.370;6.770;2023-02-28T15:36:40;9.77;;;7.20;;
48849;SDS011;63210;53.370;6.770;2023-02-28T15:39:19;12.38;;;7.13;;
48849;SDS011;63210;53.370;6.770;2023-02-28T15:41:45;13.10;;;7.50;;
48849;SDS011;63210;53.370;6.770;2023-02-28T15:44:22;9.35;;;6.32;;
48849;SDS011;63210;53.370;6.770;2023-02-28T15:47:04;9.13;;;7.10;;
48849;SDS011;63210;53.370;6.770;2023-02-28T15:49:39;9.88;;;7.13;;
48849;SDS011;63210;53.370;6.770;2023-02-28T15:52:09;11.73;;;7.05;;
48849;SDS011;63210;53.370;6.770;2023-02-28T15:54:41;11.25;;;7.38;;
48849;SDS011;63210;53.370;6.770;2023-02-28T15:57:13;13.40;;;7.28;;
48849;SDS011;63210;53.370;6.770;2023-02-28T15:59:39;11.60;;;7.68;;
48849;SDS011;63210;53.370;6.770;2023-02-28T16:07:36;11.50;;;6.95;;
48849;SDS011;63210;53.370;6.770;2023-02-28T16:10:05;13.07;;;7.47;;
48849;SDS011;63210;53.370;6.770;2023-02-28T16:12:38;12.68;;;7.57;;
48849;SDS011;63210;53.370;6.770;2023-02-28T16:15:08;13.93;;;7.30;;
48849;SDS011;63210;53.370;6.770;2023-02-28T16:17:35;10.27;;;8.00;;
48849;SDS011;63210;53.370;6.770;2023-02-28T16:20:05;9.63;;;7.38;;
48849;SDS011;63210;53.370;6.770;2023-02-28T16:22:31;12.80;;;7.85;;
48849;SDS011;63210;53.370;6.770;2023-02-28T16:24:56;12.48;;;7.40;;
48849;SDS011;63210;53.370;6.770;2023-02-28T16:27:27;9.50;;;7.15;;
48849;SDS011;63210;53.370;6.770;2023-02-28T16:29:56;13.82;;;8.07;;
48849;SDS011;63210;53.370;6.770;2023-02-28T16:32:36;13.05;;;7.82;;
48849;SDS011;63210;53.370;6.770;2023-02-28T16:35:02;12.75;;;8.27;;
48849;SDS011;63210;53.370;6.770;2023-02-28T16:37:28;10.70;;;8.15;;
48849;SDS011;63210;53.370;6.770;2023-02-28T16:39:53;13.80;;;8.52;;
48849;SDS011;63210;53.370;6.770;2023-02-28T16:42:23;9.40;;;7.43;;
48849;SDS011;63210;53.370;6.770;2023-02-28T16:44:54;17.05;;;9.98;;
48849;SDS011;63210;53.370;6.770;2023-02-28T16:47:25;15.20;;;9.75;;
48849;SDS011;63210;53.370;6.770;2023-02-28T16:49:53;11.77;;;8.60;;
48849;SDS011;63210;53.370;6.770;2023-02-28T16:52:21;16.02;;;9.02;;
48849;SDS011;63210;53.370;6.770;2023-02-28T16:54:47;10.38;;;8.13;;
48849;SDS011;63210;53.370;6.770;2023-02-28T16:57:21;8.98;;;7.13;;
48849;SDS011;63210;53.370;6.770;2023-02-28T16:59:56;9.50;;;6.68;;
48849;SDS011;63210;53.370;6.770;2023-02-28T17:02:23;11.27;;;6.53;;
48849;SDS011;63210;53.370;6.770;2023-02-28T17:04:57;14.25;;;6.63;;
48849;SDS011;63210;53.370;6.770;2023-02-28T17:07:24;11.73;;;6.80;;
48849;SDS011;63210;53.370;6.770;2023-02-28T17:09:57;10.32;;;6.47;;
48849;SDS011;63210;53.370;6.770;2023-02-28T17:12:23;11.70;;;7.60;;
48849;SDS011;63210;53.370;6.770;2023-02-28T17:14:53;10.25;;;7.22;;
48849;SDS011;63210;53.370;6.770;2023-02-28T17:17:29;11.18;;;8.82;;
48849;SDS011;63210;53.370;6.770;2023-02-28T17:19:56;10.88;;;8.38;;
48849;SDS011;63210;53.370;6.770;2023-02-28T17:22:21;13.05;;;7.95;;
48849;SDS011;63210;53.370;6.770;2023-02-28T17:24:49;10.38;;;7.55;;
48849;SDS011;63210;53.370;6.770;2023-02-28T17:27:17;10.45;;;7.68;;
48849;SDS011;63210;53.370;6.770;2023-02-28T17:29:42;13.20;;;8.35;;
48849;SDS011;63210;53.370;6.770;2023-02-28T17:32:07;14.00;;;9.18;;
48849;SDS011;63210;53.370;6.770;2023-02-28T17:34:34;12.32;;;8.38;;
48849;SDS011;63210;53.370;6.770;2023-02-28T17:37:03;10.70;;;7.53;;
48849;SDS011;63210;53.370;6.770;2023-02-28T17:39:29;13.90;;;8.35;;
48849;SDS011;63210;53.370;6.770;2023-02-28T17:41:58;10.75;;;8.05;;